createdAt,value
2023-01-18T00:03:36.427Z,22.55
2023-01-18T00:08:39.590Z,22.38
2023-01-18T00:13:41.593Z,18.10
2023-01-18T00:18:44.321Z,16.55
2023-01-18T00:23:46.025Z,20.35
2023-01-18T00:28:47.661Z,19.77
2023-01-18T00:33:50.051Z,19.63
2023-01-18T00:38:52.467Z,17.27
2023-01-18T00:43:54.416Z,14.73
2023-01-18T00:48:57.364Z,23.73
2023-01-18T00:53:58.951Z,17.83
2023-01-18T00:59:00.594Z,14.20
2023-01-18T01:04:20.620Z,15.25
2023-01-18T01:09:28.976Z,17.13
2023-01-18T01:14:50.302Z,16.00
2023-01-18T01:20:10.549Z,15.77
2023-01-18T01:25:30.855Z,19.95
2023-01-18T01:30:32.476Z,15.82
2023-01-18T01:35:34.105Z,14.50
2023-01-18T01:40:35.764Z,14.90
2023-01-18T01:45:37.563Z,12.63
2023-01-18T01:50:40.027Z,14.52
2023-01-18T01:55:42.537Z,13.45
2023-01-18T02:00:44.637Z,14.80
2023-01-18T02:05:50.801Z,17.35
2023-01-18T02:10:52.821Z,19.08
2023-01-18T02:16:13.447Z,19.30
2023-01-18T02:21:46.915Z,18.92
2023-01-18T02:27:17.637Z,21.00
2023-01-18T02:32:38.061Z,18.27
2023-01-18T02:38:02.003Z,24.60
2023-01-18T02:43:26.479Z,20.95
2023-01-18T02:48:34.925Z,16.98
2023-01-18T02:53:44.763Z,19.45
2023-01-18T02:58:51.300Z,17.48
2023-01-18T03:04:02.079Z,17.52
2023-01-18T03:09:03.903Z,15.65
2023-01-18T03:14:20.650Z,16.73
2023-01-18T03:19:42.896Z,12.30
2023-01-18T03:24:46.033Z,16.92
2023-01-18T03:30:06.185Z,13.30
2023-01-18T03:35:14.819Z,13.63
2023-01-18T03:40:23.721Z,17.77
2023-01-18T03:45:35.011Z,15.55
2023-01-18T03:50:49.679Z,17.95
2023-01-18T03:55:56.844Z,19.17
2023-01-18T04:00:58.807Z,21.67
2023-01-18T04:06:02.543Z,19.92
2023-01-18T04:11:04.233Z,20.92
2023-01-18T04:16:06.087Z,17.05
2023-01-18T04:21:07.729Z,17.80
2023-01-18T04:26:09.462Z,20.35
2023-01-18T04:31:11.132Z,22.52
2023-01-18T04:36:12.801Z,19.98
2023-01-18T04:41:14.459Z,16.48
2023-01-18T04:46:16.111Z,24.63
2023-01-18T04:51:18.795Z,18.38
2023-01-18T04:56:20.415Z,18.85
2023-01-18T05:01:22.721Z,20.15
2023-01-18T05:06:24.662Z,19.05
2023-01-18T05:11:27.154Z,18.00
2023-01-18T05:16:28.876Z,21.50
2023-01-18T05:21:30.547Z,18.63
2023-01-18T05:26:32.174Z,21.90
2023-01-18T05:31:33.921Z,17.35
2023-01-18T05:36:35.679Z,22.27
2023-01-18T05:41:37.303Z,20.58
2023-01-18T05:46:38.896Z,25.35
2023-01-18T05:51:40.516Z,20.95
2023-01-18T05:56:42.344Z,22.83
2023-01-18T06:01:43.985Z,21.67
2023-01-18T06:06:45.601Z,19.17
2023-01-18T06:11:47.227Z,20.02
2023-01-18T06:16:48.819Z,21.52
2023-01-18T06:21:50.422Z,20.42
2023-01-18T06:26:52.027Z,23.90
2023-01-18T06:31:53.869Z,20.65
2023-01-18T06:36:55.543Z,23.63
2023-01-18T06:41:57.430Z,19.20
2023-01-18T06:46:59.301Z,16.95
2023-01-18T06:52:00.946Z,24.42
2023-01-18T06:57:02.611Z,21.33
2023-01-18T07:02:05.075Z,21.33
2023-01-18T07:07:08.012Z,25.55
2023-01-18T07:12:09.680Z,26.25
2023-01-18T07:17:11.336Z,28.33
2023-01-18T07:22:13.427Z,26.73
2023-01-18T07:27:15.111Z,23.45
2023-01-18T07:32:16.779Z,29.98
2023-01-18T07:37:18.367Z,26.88
2023-01-18T07:42:20.002Z,28.23
2023-01-18T07:47:21.729Z,24.33
2023-01-18T07:52:23.360Z,19.08
2023-01-18T07:57:25.868Z,23.88
2023-01-18T08:02:27.528Z,22.80
2023-01-18T08:07:32.549Z,22.08
2023-01-18T08:12:34.182Z,26.23
2023-01-18T08:17:35.806Z,17.83
2023-01-18T08:22:37.421Z,19.95
2023-01-18T08:27:39.048Z,24.77
2023-01-18T08:32:40.993Z,24.88
2023-01-18T08:37:42.589Z,24.75
2023-01-18T08:42:44.469Z,23.58
2023-01-18T08:47:46.537Z,23.65
2023-01-18T08:52:48.143Z,19.60
2023-01-18T08:57:50.267Z,20.95
2023-01-18T09:02:52.173Z,27.85
2023-01-18T09:07:54.926Z,27.00
2023-01-18T09:12:57.111Z,21.98
2023-01-18T09:17:59.844Z,22.27
2023-01-18T09:23:10.250Z,25.42
2023-01-18T09:28:13.120Z,19.17
2023-01-18T09:33:14.924Z,23.63
2023-01-18T09:38:16.506Z,20.17
2023-01-18T09:43:27.563Z,18.25
2023-01-18T09:48:31.376Z,22.30
2023-01-18T09:53:38.877Z,21.25
2023-01-18T09:58:46.920Z,23.75
2023-01-18T10:04:19.244Z,22.95
2023-01-18T10:09:25.849Z,21.88
2023-01-18T10:14:53.154Z,23.90
2023-01-18T10:19:54.759Z,20.35
2023-01-18T10:25:05.488Z,22.25
2023-01-18T10:30:25.843Z,23.73
2023-01-18T10:35:36.550Z,27.67
2023-01-18T10:40:40.726Z,24.65
2023-01-18T10:45:44.220Z,20.63
2023-01-18T10:50:53.553Z,23.35
2023-01-18T10:56:18.371Z,25.58
2023-01-18T11:01:23.671Z,20.52
2023-01-18T11:06:26.391Z,24.38
2023-01-18T11:11:50.061Z,23.55
2023-01-18T11:17:11.512Z,20.08
2023-01-18T11:22:16.982Z,21.65
2023-01-18T11:27:24.833Z,22.80
2023-01-18T11:32:29.890Z,24.23
2023-01-18T11:37:35.374Z,25.25
2023-01-18T11:42:40.489Z,26.35
2023-01-18T11:47:51.137Z,30.73
2023-01-18T11:52:55.251Z,28.02
2023-01-18T11:57:59.044Z,25.55
2023-01-18T12:03:29.365Z,24.80
2023-01-18T12:08:38.358Z,26.02
2023-01-18T12:13:47.207Z,26.63
2023-01-18T12:18:57.713Z,26.70
2023-01-18T12:24:15.862Z,28.65
2023-01-18T12:29:51.268Z,22.85
2023-01-18T12:35:15.563Z,26.60
2023-01-18T12:40:40.444Z,25.60
2023-01-18T12:45:57.277Z,26.55
2023-01-18T12:51:01.006Z,27.45
2023-01-18T12:56:13.077Z,22.38
2023-01-18T13:01:21.806Z,26.58
2023-01-18T13:06:25.992Z,28.27
2023-01-18T13:11:33.139Z,28.80
2023-01-18T13:17:03.985Z,24.95
2023-01-18T13:22:35.210Z,23.95
2023-01-18T13:27:37.878Z,22.88
2023-01-18T13:32:42.390Z,22.77
2023-01-18T13:37:56.417Z,21.83
2023-01-18T13:42:58.588Z,22.92
2023-01-18T13:48:54.408Z,24.10
2023-01-18T13:53:56.164Z,24.63
2023-01-18T13:59:12.743Z,24.88
2023-01-18T14:04:17.323Z,25.10
2023-01-18T14:09:42.196Z,25.75
2023-01-18T14:14:58.950Z,23.25
2023-01-18T14:20:28.603Z,28.20
2023-01-18T14:25:51.766Z,25.42
2023-01-18T14:30:58.610Z,26.75
2023-01-18T14:36:01.996Z,26.73
2023-01-18T14:41:07.525Z,27.00
2023-01-18T14:46:21.699Z,26.73
2023-01-18T14:51:26.638Z,23.98
2023-01-18T14:56:31.970Z,33.63
2023-01-18T15:01:37.737Z,32.95
2023-01-18T15:06:42.218Z,34.58
2023-01-18T15:11:44.797Z,32.40
2023-01-18T15:16:48.854Z,33.88
2023-01-18T15:21:51.054Z,26.35
2023-01-18T15:27:01.222Z,22.92
2023-01-18T15:32:19.337Z,21.73
2023-01-18T15:37:37.655Z,18.38
2023-01-18T15:42:44.789Z,15.40
2023-01-18T15:47:53.732Z,13.88
2023-01-18T15:53:06.762Z,14.45
2023-01-18T15:58:13.961Z,12.75
2023-01-18T16:03:21.840Z,13.40
2023-01-18T16:08:24.123Z,14.57
2023-01-18T16:13:40.092Z,13.52
2023-01-18T16:18:48.073Z,9.82
2023-01-18T16:23:52.426Z,7.97
2023-01-18T16:28:54.133Z,8.73
2023-01-18T16:33:55.700Z,10.50
2023-01-18T16:38:57.310Z,11.13
2023-01-18T16:44:03.660Z,10.20
2023-01-18T16:49:11.358Z,10.25
2023-01-18T16:54:13.014Z,12.73
2023-01-18T16:59:17.593Z,8.95
2023-01-18T17:04:19.193Z,8.75
2023-01-18T17:09:27.128Z,9.43
2023-01-18T17:14:29.550Z,9.05
2023-01-18T17:19:31.165Z,7.88
2023-01-18T17:24:33.056Z,8.60
2023-01-18T17:29:34.700Z,6.00
2023-01-18T17:34:36.305Z,5.97
2023-01-18T17:39:49.732Z,5.45
2023-01-18T17:45:09.872Z,5.18
2023-01-18T17:50:19.058Z,5.63
2023-01-18T17:55:24.464Z,7.30
2023-01-18T18:00:29.217Z,7.37
2023-01-18T18:05:30.897Z,7.13
2023-01-18T18:10:32.522Z,5.63
2023-01-18T18:15:34.188Z,6.25
2023-01-18T18:20:38.188Z,4.05
2023-01-18T18:25:40.373Z,4.30
2023-01-18T18:30:41.955Z,4.22
2023-01-18T18:35:43.542Z,4.18
2023-01-18T18:40:45.796Z,6.70
2023-01-18T18:45:47.741Z,3.13
2023-01-18T18:50:52.273Z,3.53
2023-01-18T18:56:00.287Z,4.57
2023-01-18T19:01:02.285Z,3.92
2023-01-18T19:06:04.002Z,4.47
2023-01-18T19:11:05.681Z,4.25
2023-01-18T19:16:07.781Z,6.05
2023-01-18T19:21:09.421Z,7.80
2023-01-18T19:26:11.043Z,3.65
2023-01-18T19:31:13.126Z,3.72
2023-01-18T19:36:15.511Z,5.25
2023-01-18T19:41:17.561Z,7.10
2023-01-18T19:46:20.253Z,7.45
2023-01-18T19:51:23.050Z,7.47
2023-01-18T19:56:25.747Z,4.00
2023-01-18T20:01:36.402Z,3.58
2023-01-18T20:06:39.507Z,7.45
2023-01-18T20:11:41.220Z,7.95
2023-01-18T20:16:44.907Z,7.60
2023-01-18T20:21:47.533Z,7.85
2023-01-18T20:26:49.141Z,10.88
2023-01-18T20:31:51.411Z,11.48
2023-01-18T20:36:53.089Z,14.65
2023-01-18T20:41:54.700Z,11.77
2023-01-18T20:46:57.425Z,17.02
2023-01-18T20:51:59.047Z,12.48
2023-01-18T20:57:00.637Z,14.75
2023-01-18T21:02:03.343Z,18.00
2023-01-18T21:07:05.230Z,21.52
2023-01-18T21:12:07.107Z,18.77
2023-01-18T21:17:08.887Z,15.57
2023-01-18T21:22:10.485Z,15.38
2023-01-18T21:27:12.694Z,17.13
2023-01-18T21:32:14.752Z,20.70
2023-01-18T21:37:16.365Z,21.98
2023-01-18T21:42:36.726Z,18.13
2023-01-18T21:47:38.314Z,16.75
2023-01-18T21:52:58.145Z,16.80
2023-01-18T21:58:18.304Z,18.52
2023-01-18T22:03:20.724Z,22.05
2023-01-18T22:08:22.319Z,20.38
2023-01-18T22:13:24.032Z,20.88
2023-01-18T22:18:25.627Z,18.85
2023-01-18T22:23:27.280Z,20.05
2023-01-18T22:28:28.896Z,24.80
2023-01-18T22:33:30.485Z,22.15
2023-01-18T22:38:32.438Z,17.08
2023-01-18T22:43:35.902Z,18.85
2023-01-18T22:48:38.180Z,19.15
2023-01-18T22:53:39.790Z,21.15
2023-01-18T22:58:41.675Z,25.73
2023-01-18T23:03:44.019Z,20.67
2023-01-18T23:08:47.286Z,20.88
2023-01-18T23:14:10.967Z,20.92
2023-01-18T23:19:12.556Z,19.05
2023-01-18T23:24:14.141Z,21.33
2023-01-18T23:29:16.241Z,21.58
2023-01-18T23:34:18.167Z,22.92
2023-01-18T23:39:38.382Z,23.02
2023-01-18T23:44:58.571Z,24.90
2023-01-18T23:50:18.727Z,22.73
2023-01-18T23:55:21.524Z,20.55
